sensor_id;sensor_type;location;lat;lon;timestamp;temperature;humidity
35127;DHT22;21300;52.006;5.798;2023-08-24T00:01:07;21.10;84.90
35127;DHT22;21300;52.006;5.798;2023-08-24T00:03:34;21.20;84.90
35127;DHT22;21300;52.006;5.798;2023-08-24T00:06:00;21.10;84.90
35127;DHT22;21300;52.006;5.798;2023-08-24T00:08:26;21.10;85.00
35127;DHT22;21300;52.006;5.798;2023-08-24T00:10:52;21.10;85.00
35127;DHT22;21300;52.006;5.798;2023-08-24T00:13:18;21.10;85.00
35127;DHT22;21300;52.006;5.798;2023-08-24T00:15:45;21.00;84.90
35127;DHT22;21300;52.006;5.798;2023-08-24T00:18:10;21.00;85.00
35127;DHT22;21300;52.006;5.798;2023-08-24T00:20:36;21.00;85.10
35127;DHT22;21300;52.006;5.798;2023-08-24T00:23:03;21.00;85.10
35127;DHT22;21300;52.006;5.798;2023-08-24T00:25:29;21.00;85.10
35127;DHT22;21300;52.006;5.798;2023-08-24T00:27:55;21.00;85.10
35127;DHT22;21300;52.006;5.798;2023-08-24T00:30:20;20.90;85.00
35127;DHT22;21300;52.006;5.798;2023-08-24T00:32:46;20.90;85.10
35127;DHT22;21300;52.006;5.798;2023-08-24T00:35:12;20.90;85.20
35127;DHT22;21300;52.006;5.798;2023-08-24T00:37:38;20.90;85.10
35127;DHT22;21300;52.006;5.798;2023-08-24T00:40:05;20.80;85.10
35127;DHT22;21300;52.006;5.798;2023-08-24T00:42:42;20.80;85.10
35127;DHT22;21300;52.006;5.798;2023-08-24T00:45:10;20.80;85.20
35127;DHT22;21300;52.006;5.798;2023-08-24T00:47:46;20.80;85.20
35127;DHT22;21300;52.006;5.798;2023-08-24T00:50:12;20.80;85.30
35127;DHT22;21300;52.006;5.798;2023-08-24T00:52:40;20.70;85.20
35127;DHT22;21300;52.006;5.798;2023-08-24T00:55:07;20.70;85.20
35127;DHT22;21300;52.006;5.798;2023-08-24T00:57:33;20.70;85.30
35127;DHT22;21300;52.006;5.798;2023-08-24T01:00:03;20.70;85.40
35127;DHT22;21300;52.006;5.798;2023-08-24T01:02:30;20.70;85.30
35127;DHT22;21300;52.006;5.798;2023-08-24T01:04:56;20.60;85.30
35127;DHT22;21300;52.006;5.798;2023-08-24T01:07:22;20.60;85.40
35127;DHT22;21300;52.006;5.798;2023-08-24T01:09:48;20.60;85.40
35127;DHT22;21300;52.006;5.798;2023-08-24T01:12:32;20.60;85.40
35127;DHT22;21300;52.006;5.798;2023-08-24T01:15:19;20.60;85.40
35127;DHT22;21300;52.006;5.798;2023-08-24T01:17:46;20.50;85.40
35127;DHT22;21300;52.006;5.798;2023-08-24T01:20:13;20.50;85.40
35127;DHT22;21300;52.006;5.798;2023-08-24T01:22:55;20.50;85.50
35127;DHT22;21300;52.006;5.798;2023-08-24T01:25:34;20.50;85.40
35127;DHT22;21300;52.006;5.798;2023-08-24T01:28:03;20.50;85.50
35127;DHT22;21300;52.006;5.798;2023-08-24T01:30:31;20.50;85.60
35127;DHT22;21300;52.006;5.798;2023-08-24T01:32:56;20.40;85.60
35127;DHT22;21300;52.006;5.798;2023-08-24T01:35:22;20.40;85.60
35127;DHT22;21300;52.006;5.798;2023-08-24T01:37:48;20.40;85.60
35127;DHT22;21300;52.006;5.798;2023-08-24T01:40:20;20.40;85.80
35127;DHT22;21300;52.006;5.798;2023-08-24T01:45:41;20.40;85.80
35127;DHT22;21300;52.006;5.798;2023-08-24T01:48:09;20.40;85.80
35127;DHT22;21300;52.006;5.798;2023-08-24T01:50:35;20.40;85.80
35127;DHT22;21300;52.006;5.798;2023-08-24T01:53:02;20.40;85.80
35127;DHT22;21300;52.006;5.798;2023-08-24T01:55:28;20.30;85.70
35127;DHT22;21300;52.006;5.798;2023-08-24T01:57:56;20.30;85.80
35127;DHT22;21300;52.006;5.798;2023-08-24T02:00:22;20.30;85.70
35127;DHT22;21300;52.006;5.798;2023-08-24T02:02:48;20.30;85.90
35127;DHT22;21300;52.006;5.798;2023-08-24T02:05:14;20.30;85.90
35127;DHT22;21300;52.006;5.798;2023-08-24T02:07:40;20.30;85.90
35127;DHT22;21300;52.006;5.798;2023-08-24T02:10:08;20.30;86.00
35127;DHT22;21300;52.006;5.798;2023-08-24T02:12:34;20.20;85.90
35127;DHT22;21300;52.006;5.798;2023-08-24T02:15:00;20.20;86.00
35127;DHT22;21300;52.006;5.798;2023-08-24T02:17:26;20.20;86.00
35127;DHT22;21300;52.006;5.798;2023-08-24T02:19:51;20.20;86.00
35127;DHT22;21300;52.006;5.798;2023-08-24T02:22:17;20.20;86.10
35127;DHT22;21300;52.006;5.798;2023-08-24T02:24:43;20.20;86.10
35127;DHT22;21300;52.006;5.798;2023-08-24T02:27:09;20.20;86.10
35127;DHT22;21300;52.006;5.798;2023-08-24T02:29:34;20.20;86.20
35127;DHT22;21300;52.006;5.798;2023-08-24T02:32:00;20.20;86.30
35127;DHT22;21300;52.006;5.798;2023-08-24T02:34:25;20.10;86.20
35127;DHT22;21300;52.006;5.798;2023-08-24T02:36:51;20.10;86.20
35127;DHT22;21300;52.006;5.798;2023-08-24T02:39:17;20.10;86.30
35127;DHT22;21300;52.006;5.798;2023-08-24T02:41:42;20.10;86.30
35127;DHT22;21300;52.006;5.798;2023-08-24T02:44:08;20.10;86.30
35127;DHT22;21300;52.006;5.798;2023-08-24T02:46:34;20.10;86.30
35127;DHT22;21300;52.006;5.798;2023-08-24T02:48:59;20.10;86.40
35127;DHT22;21300;52.006;5.798;2023-08-24T02:51:25;20.10;86.40
35127;DHT22;21300;52.006;5.798;2023-08-24T02:53:51;20.00;86.40
35127;DHT22;21300;52.006;5.798;2023-08-24T02:56:16;20.00;86.40
35127;DHT22;21300;52.006;5.798;2023-08-24T02:58:42;20.00;86.40
35127;DHT22;21300;52.006;5.798;2023-08-24T03:01:08;20.10;86.50
35127;DHT22;21300;52.006;5.798;2023-08-24T03:03:34;20.00;86.40
35127;DHT22;21300;52.006;5.798;2023-08-24T03:06:02;20.00;86.50
35127;DHT22;21300;52.006;5.798;2023-08-24T03:08:28;20.00;86.60
35127;DHT22;21300;52.006;5.798;2023-08-24T03:10:54;20.00;86.70
35127;DHT22;21300;52.006;5.798;2023-08-24T03:13:20;20.00;86.70
35127;DHT22;21300;52.006;5.798;2023-08-24T03:15:45;20.00;86.70
35127;DHT22;21300;52.006;5.798;2023-08-24T03:18:12;19.90;86.90
35127;DHT22;21300;52.006;5.798;2023-08-24T03:20:38;19.90;87.00
35127;DHT22;21300;52.006;5.798;2023-08-24T03:23:04;19.90;86.90
35127;DHT22;21300;52.006;5.798;2023-08-24T03:25:34;19.90;86.80
35127;DHT22;21300;52.006;5.798;2023-08-24T03:28:00;19.90;86.80
35127;DHT22;21300;52.006;5.798;2023-08-24T03:30:25;19.90;86.80
35127;DHT22;21300;52.006;5.798;2023-08-24T03:32:51;19.90;86.80
35127;DHT22;21300;52.006;5.798;2023-08-24T03:35:17;19.90;86.90
35127;DHT22;21300;52.006;5.798;2023-08-24T03:37:42;19.90;86.90
35127;DHT22;21300;52.006;5.798;2023-08-24T03:40:08;19.90;87.00
35127;DHT22;21300;52.006;5.798;2023-08-24T03:42:34;19.90;87.00
35127;DHT22;21300;52.006;5.798;2023-08-24T03:45:00;19.90;87.10
35127;DHT22;21300;52.006;5.798;2023-08-24T03:47:25;19.90;87.30
35127;DHT22;21300;52.006;5.798;2023-08-24T03:49:51;19.90;87.20
35127;DHT22;21300;52.006;5.798;2023-08-24T03:52:16;19.80;87.10
35127;DHT22;21300;52.006;5.798;2023-08-24T03:54:42;19.80;87.20
35127;DHT22;21300;52.006;5.798;2023-08-24T03:57:08;19.80;87.20
35127;DHT22;21300;52.006;5.798;2023-08-24T03:59:33;19.80;87.30
35127;DHT22;21300;52.006;5.798;2023-08-24T04:02:00;19.80;87.30
35127;DHT22;21300;52.006;5.798;2023-08-24T04:04:27;19.80;87.40
35127;DHT22;21300;52.006;5.798;2023-08-24T04:06:53;19.80;87.80
35127;DHT22;21300;52.006;5.798;2023-08-24T04:09:19;19.80;88.00
35127;DHT22;21300;52.006;5.798;2023-08-24T04:11:44;19.70;88.00
35127;DHT22;21300;52.006;5.798;2023-08-24T04:14:10;19.70;87.80
35127;DHT22;21300;52.006;5.798;2023-08-24T04:16:36;19.70;87.80
35127;DHT22;21300;52.006;5.798;2023-08-24T04:19:01;19.70;87.60
35127;DHT22;21300;52.006;5.798;2023-08-24T04:21:27;19.70;87.50
35127;DHT22;21300;52.006;5.798;2023-08-24T04:23:53;19.70;87.50
35127;DHT22;21300;52.006;5.798;2023-08-24T04:26:18;19.70;87.40
35127;DHT22;21300;52.006;5.798;2023-08-24T04:28:44;19.70;87.40
35127;DHT22;21300;52.006;5.798;2023-08-24T04:31:09;19.70;87.40
35127;DHT22;21300;52.006;5.798;2023-08-24T04:33:35;19.70;87.40
35127;DHT22;21300;52.006;5.798;2023-08-24T04:36:02;19.70;87.50
35127;DHT22;21300;52.006;5.798;2023-08-24T04:38:31;19.70;87.50
35127;DHT22;21300;52.006;5.798;2023-08-24T04:40:56;19.70;87.50
35127;DHT22;21300;52.006;5.798;2023-08-24T04:43:23;19.70;87.50
35127;DHT22;21300;52.006;5.798;2023-08-24T04:45:50;19.70;87.50
35127;DHT22;21300;52.006;5.798;2023-08-24T04:48:20;19.60;87.50
35127;DHT22;21300;52.006;5.798;2023-08-24T04:50:46;19.60;87.60
35127;DHT22;21300;52.006;5.798;2023-08-24T04:53:15;19.60;87.50
35127;DHT22;21300;52.006;5.798;2023-08-24T04:55:41;19.60;87.50
35127;DHT22;21300;52.006;5.798;2023-08-24T04:58:08;19.60;87.60
35127;DHT22;21300;52.006;5.798;2023-08-24T05:00:34;19.60;87.60
35127;DHT22;21300;52.006;5.798;2023-08-24T05:03:03;19.60;87.70
35127;DHT22;21300;52.006;5.798;2023-08-24T05:05:30;19.60;87.70
35127;DHT22;21300;52.006;5.798;2023-08-24T05:07:57;19.60;87.70
35127;DHT22;21300;52.006;5.798;2023-08-24T05:10:23;19.60;87.70
35127;DHT22;21300;52.006;5.798;2023-08-24T05:12:48;19.60;87.70
35127;DHT22;21300;52.006;5.798;2023-08-24T05:15:14;19.60;87.70
35127;DHT22;21300;52.006;5.798;2023-08-24T05:17:40;19.50;87.70
35127;DHT22;21300;52.006;5.798;2023-08-24T05:20:07;19.50;87.70
35127;DHT22;21300;52.006;5.798;2023-08-24T05:22:37;19.50;87.70
35127;DHT22;21300;52.006;5.798;2023-08-24T05:25:03;19.50;87.70
35127;DHT22;21300;52.006;5.798;2023-08-24T05:27:30;19.50;87.80
35127;DHT22;21300;52.006;5.798;2023-08-24T05:29:55;19.50;87.70
35127;DHT22;21300;52.006;5.798;2023-08-24T05:32:21;19.50;87.80
35127;DHT22;21300;52.006;5.798;2023-08-24T05:34:47;19.50;87.80
35127;DHT22;21300;52.006;5.798;2023-08-24T05:37:12;19.50;87.80
35127;DHT22;21300;52.006;5.798;2023-08-24T05:39:38;19.50;87.80
35127;DHT22;21300;52.006;5.798;2023-08-24T05:42:04;19.50;87.80
35127;DHT22;21300;52.006;5.798;2023-08-24T05:44:30;19.50;87.80
35127;DHT22;21300;52.006;5.798;2023-08-24T05:46:55;19.30;90.70
35127;DHT22;21300;52.006;5.798;2023-08-24T05:49:21;19.10;90.80
35127;DHT22;21300;52.006;5.798;2023-08-24T05:51:49;19.10;91.20
35127;DHT22;21300;52.006;5.798;2023-08-24T05:54:15;19.10;91.30
35127;DHT22;21300;52.006;5.798;2023-08-24T05:56:46;19.20;91.20
35127;DHT22;21300;52.006;5.798;2023-08-24T05:59:13;19.30;91.20
35127;DHT22;21300;52.006;5.798;2023-08-24T06:01:38;19.30;91.10
35127;DHT22;21300;52.006;5.798;2023-08-24T06:04:08;19.30;90.90
35127;DHT22;21300;52.006;5.798;2023-08-24T06:06:37;19.30;90.90
35127;DHT22;21300;52.006;5.798;2023-08-24T06:09:03;19.30;90.80
35127;DHT22;21300;52.006;5.798;2023-08-24T06:11:30;19.30;90.60
35127;DHT22;21300;52.006;5.798;2023-08-24T06:13:56;19.30;90.90
35127;DHT22;21300;52.006;5.798;2023-08-24T06:16:21;19.30;90.70
35127;DHT22;21300;52.006;5.798;2023-08-24T06:18:47;19.30;90.90
35127;DHT22;21300;52.006;5.798;2023-08-24T06:21:15;19.30;90.90
35127;DHT22;21300;52.006;5.798;2023-08-24T06:23:40;19.30;91.00
35127;DHT22;21300;52.006;5.798;2023-08-24T06:26:06;19.30;91.00
35127;DHT22;21300;52.006;5.798;2023-08-24T06:28:32;19.30;91.00
35127;DHT22;21300;52.006;5.798;2023-08-24T06:30:57;19.30;90.70
35127;DHT22;21300;52.006;5.798;2023-08-24T06:33:28;19.30;90.80
35127;DHT22;21300;52.006;5.798;2023-08-24T06:35:59;19.30;90.50
35127;DHT22;21300;52.006;5.798;2023-08-24T06:38:25;19.30;90.80
35127;DHT22;21300;52.006;5.798;2023-08-24T06:40:51;19.40;90.50
35127;DHT22;21300;52.006;5.798;2023-08-24T06:43:17;19.30;90.60
35127;DHT22;21300;52.006;5.798;2023-08-24T06:45:44;19.40;90.90
35127;DHT22;21300;52.006;5.798;2023-08-24T06:48:09;19.40;90.70
35127;DHT22;21300;52.006;5.798;2023-08-24T06:50:35;19.40;90.50
35127;DHT22;21300;52.006;5.798;2023-08-24T06:53:03;19.40;90.50
35127;DHT22;21300;52.006;5.798;2023-08-24T06:55:28;19.40;90.50
35127;DHT22;21300;52.006;5.798;2023-08-24T06:57:54;19.40;90.70
35127;DHT22;21300;52.006;5.798;2023-08-24T07:00:20;19.40;90.70
35127;DHT22;21300;52.006;5.798;2023-08-24T07:02:47;19.40;90.60
35127;DHT22;21300;52.006;5.798;2023-08-24T07:05:13;19.40;90.30
35127;DHT22;21300;52.006;5.798;2023-08-24T07:07:38;19.50;90.30
35127;DHT22;21300;52.006;5.798;2023-08-24T07:10:05;19.50;90.30
35127;DHT22;21300;52.006;5.798;2023-08-24T07:12:31;19.50;90.10
35127;DHT22;21300;52.006;5.798;2023-08-24T07:14:57;19.50;90.40
35127;DHT22;21300;52.006;5.798;2023-08-24T07:17:23;19.50;90.30
35127;DHT22;21300;52.006;5.798;2023-08-24T07:19:48;19.50;90.50
35127;DHT22;21300;52.006;5.798;2023-08-24T07:22:14;19.50;90.30
35127;DHT22;21300;52.006;5.798;2023-08-24T07:24:40;19.60;90.30
35127;DHT22;21300;52.006;5.798;2023-08-24T07:27:07;19.60;90.30
35127;DHT22;21300;52.006;5.798;2023-08-24T07:29:34;19.60;90.20
35127;DHT22;21300;52.006;5.798;2023-08-24T07:31:59;19.60;90.20
35127;DHT22;21300;52.006;5.798;2023-08-24T07:34:25;19.60;90.50
35127;DHT22;21300;52.006;5.798;2023-08-24T07:36:50;19.60;90.10
35127;DHT22;21300;52.006;5.798;2023-08-24T07:39:16;19.70;90.30
35127;DHT22;21300;52.006;5.798;2023-08-24T07:41:42;19.70;90.30
35127;DHT22;21300;52.006;5.798;2023-08-24T07:44:08;19.70;90.10
35127;DHT22;21300;52.006;5.798;2023-08-24T07:46:33;19.70;90.10
35127;DHT22;21300;52.006;5.798;2023-08-24T07:48:59;19.70;90.10
35127;DHT22;21300;52.006;5.798;2023-08-24T07:51:25;19.80;90.10
35127;DHT22;21300;52.006;5.798;2023-08-24T07:53:50;19.80;90.00
35127;DHT22;21300;52.006;5.798;2023-08-24T07:56:18;19.80;89.80
35127;DHT22;21300;52.006;5.798;2023-08-24T07:58:44;19.90;90.00
35127;DHT22;21300;52.006;5.798;2023-08-24T08:01:10;19.90;89.40
35127;DHT22;21300;52.006;5.798;2023-08-24T08:03:35;19.90;89.90
35127;DHT22;21300;52.006;5.798;2023-08-24T08:06:01;19.90;90.00
35127;DHT22;21300;52.006;5.798;2023-08-24T08:08:27;19.90;89.40
35127;DHT22;21300;52.006;5.798;2023-08-24T08:11:02;20.00;89.70
35127;DHT22;21300;52.006;5.798;2023-08-24T08:13:28;20.00;90.30
35127;DHT22;21300;52.006;5.798;2023-08-24T08:16:01;20.10;89.90
35127;DHT22;21300;52.006;5.798;2023-08-24T08:18:28;20.10;89.50
35127;DHT22;21300;52.006;5.798;2023-08-24T08:20:54;20.10;89.30
35127;DHT22;21300;52.006;5.798;2023-08-24T08:23:20;20.10;89.20
35127;DHT22;21300;52.006;5.798;2023-08-24T08:25:45;20.20;89.20
35127;DHT22;21300;52.006;5.798;2023-08-24T08:28:11;20.20;89.20
35127;DHT22;21300;52.006;5.798;2023-08-24T08:30:36;20.20;89.50
35127;DHT22;21300;52.006;5.798;2023-08-24T08:33:02;20.30;89.30
35127;DHT22;21300;52.006;5.798;2023-08-24T08:35:28;20.30;89.50
35127;DHT22;21300;52.006;5.798;2023-08-24T08:37:53;20.30;89.10
35127;DHT22;21300;52.006;5.798;2023-08-24T08:40:19;20.40;89.60
35127;DHT22;21300;52.006;5.798;2023-08-24T08:42:45;20.40;89.30
35127;DHT22;21300;52.006;5.798;2023-08-24T08:45:11;20.40;89.40
35127;DHT22;21300;52.006;5.798;2023-08-24T08:47:38;20.50;89.50
35127;DHT22;21300;52.006;5.798;2023-08-24T08:50:04;20.50;89.40
35127;DHT22;21300;52.006;5.798;2023-08-24T08:52:31;20.60;89.50
35127;DHT22;21300;52.006;5.798;2023-08-24T08:54:57;20.60;89.50
35127;DHT22;21300;52.006;5.798;2023-08-24T08:57:25;20.60;89.70
35127;DHT22;21300;52.006;5.798;2023-08-24T08:59:52;20.60;89.30
35127;DHT22;21300;52.006;5.798;2023-08-24T09:02:19;20.70;89.50
35127;DHT22;21300;52.006;5.798;2023-08-24T09:04:45;20.70;89.90
35127;DHT22;21300;52.006;5.798;2023-08-24T09:07:16;20.80;90.00
35127;DHT22;21300;52.006;5.798;2023-08-24T09:09:42;20.80;89.70
35127;DHT22;21300;52.006;5.798;2023-08-24T09:12:08;20.80;89.50
35127;DHT22;21300;52.006;5.798;2023-08-24T09:14:34;20.90;89.90
35127;DHT22;21300;52.006;5.798;2023-08-24T09:17:00;20.90;89.90
35127;DHT22;21300;52.006;5.798;2023-08-24T09:19:30;21.00;89.80
35127;DHT22;21300;52.006;5.798;2023-08-24T09:22:01;21.00;90.00
35127;DHT22;21300;52.006;5.798;2023-08-24T09:24:34;21.10;90.10
35127;DHT22;21300;52.006;5.798;2023-08-24T09:27:14;21.10;90.20
35127;DHT22;21300;52.006;5.798;2023-08-24T09:29:41;21.10;89.80
35127;DHT22;21300;52.006;5.798;2023-08-24T09:32:10;21.20;89.90
35127;DHT22;21300;52.006;5.798;2023-08-24T09:34:36;21.20;89.80
35127;DHT22;21300;52.006;5.798;2023-08-24T09:37:02;21.20;89.80
35127;DHT22;21300;52.006;5.798;2023-08-24T09:39:30;21.30;89.50
35127;DHT22;21300;52.006;5.798;2023-08-24T09:42:00;21.30;89.80
35127;DHT22;21300;52.006;5.798;2023-08-24T09:44:28;21.40;89.70
35127;DHT22;21300;52.006;5.798;2023-08-24T09:46:54;21.40;89.50
35127;DHT22;21300;52.006;5.798;2023-08-24T09:49:19;21.50;89.50
35127;DHT22;21300;52.006;5.798;2023-08-24T09:51:45;21.50;89.30
35127;DHT22;21300;52.006;5.798;2023-08-24T09:54:11;21.60;89.10
35127;DHT22;21300;52.006;5.798;2023-08-24T09:56:40;21.60;89.40
35127;DHT22;21300;52.006;5.798;2023-08-24T09:59:17;21.60;89.40
35127;DHT22;21300;52.006;5.798;2023-08-24T10:01:48;21.70;89.30
35127;DHT22;21300;52.006;5.798;2023-08-24T10:04:22;21.80;89.50
35127;DHT22;21300;52.006;5.798;2023-08-24T10:06:55;21.80;89.20
35127;DHT22;21300;52.006;5.798;2023-08-24T10:10:03;21.80;89.00
35127;DHT22;21300;52.006;5.798;2023-08-24T10:12:32;21.90;88.90
35127;DHT22;21300;52.006;5.798;2023-08-24T10:15:02;21.90;89.10
35127;DHT22;21300;52.006;5.798;2023-08-24T10:17:33;22.00;89.20
35127;DHT22;21300;52.006;5.798;2023-08-24T10:20:01;22.00;89.10
35127;DHT22;21300;52.006;5.798;2023-08-24T10:22:31;22.00;89.20
35127;DHT22;21300;52.006;5.798;2023-08-24T10:24:57;22.10;89.20
35127;DHT22;21300;52.006;5.798;2023-08-24T10:27:23;22.10;89.10
35127;DHT22;21300;52.006;5.798;2023-08-24T10:29:51;22.10;89.00
35127;DHT22;21300;52.006;5.798;2023-08-24T10:32:17;22.20;88.90
35127;DHT22;21300;52.006;5.798;2023-08-24T10:34:44;22.20;88.40
35127;DHT22;21300;52.006;5.798;2023-08-24T10:37:11;22.30;88.70
35127;DHT22;21300;52.006;5.798;2023-08-24T10:39:45;22.30;88.90
35127;DHT22;21300;52.006;5.798;2023-08-24T10:42:14;22.30;88.60
35127;DHT22;21300;52.006;5.798;2023-08-24T10:44:44;22.40;88.80
35127;DHT22;21300;52.006;5.798;2023-08-24T10:47:13;22.40;88.40
35127;DHT22;21300;52.006;5.798;2023-08-24T10:49:40;22.50;89.40
35127;DHT22;21300;52.006;5.798;2023-08-24T10:52:31;22.40;88.40
35127;DHT22;21300;52.006;5.798;2023-08-24T10:55:00;22.50;88.50
35127;DHT22;21300;52.006;5.798;2023-08-24T10:57:34;22.50;88.40
35127;DHT22;21300;52.006;5.798;2023-08-24T11:00:10;22.50;88.60
35127;DHT22;21300;52.006;5.798;2023-08-24T11:02:49;22.60;88.70
35127;DHT22;21300;52.006;5.798;2023-08-24T11:10:16;22.60;88.80
35127;DHT22;21300;52.006;5.798;2023-08-24T11:15:30;22.60;88.70
35127;DHT22;21300;52.006;5.798;2023-08-24T11:18:20;22.70;88.90
35127;DHT22;21300;52.006;5.798;2023-08-24T11:20:52;22.70;89.10
35127;DHT22;21300;52.006;5.798;2023-08-24T11:23:19;22.70;89.20
35127;DHT22;21300;52.006;5.798;2023-08-24T11:25:46;22.70;89.30
35127;DHT22;21300;52.006;5.798;2023-08-24T11:28:17;22.70;89.10
35127;DHT22;21300;52.006;5.798;2023-08-24T11:30:43;22.80;89.00
35127;DHT22;21300;52.006;5.798;2023-08-24T11:33:11;22.80;89.30
35127;DHT22;21300;52.006;5.798;2023-08-24T11:35:43;22.80;89.20
35127;DHT22;21300;52.006;5.798;2023-08-24T11:38:09;22.80;89.40
35127;DHT22;21300;52.006;5.798;2023-08-24T11:40:35;22.80;89.40
35127;DHT22;21300;52.006;5.798;2023-08-24T11:43:00;22.80;89.40
35127;DHT22;21300;52.006;5.798;2023-08-24T11:45:31;22.80;89.40
35127;DHT22;21300;52.006;5.798;2023-08-24T11:47:59;22.80;89.50
35127;DHT22;21300;52.006;5.798;2023-08-24T11:50:30;22.80;89.50
35127;DHT22;21300;52.006;5.798;2023-08-24T11:52:56;22.80;89.40
35127;DHT22;21300;52.006;5.798;2023-08-24T11:55:24;22.80;89.50
35127;DHT22;21300;52.006;5.798;2023-08-24T11:57:51;22.90;89.30
35127;DHT22;21300;52.006;5.798;2023-08-24T12:00:20;22.90;89.50
35127;DHT22;21300;52.006;5.798;2023-08-24T12:02:47;22.90;89.40
35127;DHT22;21300;52.006;5.798;2023-08-24T12:05:21;22.90;89.30
35127;DHT22;21300;52.006;5.798;2023-08-24T12:07:47;22.90;89.30
35127;DHT22;21300;52.006;5.798;2023-08-24T12:10:13;22.90;89.20
35127;DHT22;21300;52.006;5.798;2023-08-24T12:12:39;22.90;89.20
35127;DHT22;21300;52.006;5.798;2023-08-24T12:15:04;23.00;89.40
35127;DHT22;21300;52.006;5.798;2023-08-24T12:17:31;22.90;89.10
35127;DHT22;21300;52.006;5.798;2023-08-24T12:20:07;23.00;89.10
35127;DHT22;21300;52.006;5.798;2023-08-24T12:22:38;23.00;89.00
35127;DHT22;21300;52.006;5.798;2023-08-24T12:25:03;23.00;89.00
35127;DHT22;21300;52.006;5.798;2023-08-24T12:27:29;23.00;89.20
35127;DHT22;21300;52.006;5.798;2023-08-24T12:29:59;23.00;89.20
35127;DHT22;21300;52.006;5.798;2023-08-24T12:32:25;23.00;89.00
35127;DHT22;21300;52.006;5.798;2023-08-24T12:34:55;23.10;89.20
35127;DHT22;21300;52.006;5.798;2023-08-24T12:37:21;23.10;88.90
35127;DHT22;21300;52.006;5.798;2023-08-24T12:39:46;23.20;89.00
35127;DHT22;21300;52.006;5.798;2023-08-24T12:42:14;23.20;89.00
35127;DHT22;21300;52.006;5.798;2023-08-24T12:44:39;23.20;89.10
35127;DHT22;21300;52.006;5.798;2023-08-24T12:47:05;23.20;88.80
35127;DHT22;21300;52.006;5.798;2023-08-24T12:49:30;23.20;88.70
35127;DHT22;21300;52.006;5.798;2023-08-24T12:51:56;23.20;88.70
35127;DHT22;21300;52.006;5.798;2023-08-24T12:54:21;23.20;88.70
35127;DHT22;21300;52.006;5.798;2023-08-24T12:56:47;23.20;88.90
35127;DHT22;21300;52.006;5.798;2023-08-24T12:59:13;23.20;89.10
35127;DHT22;21300;52.006;5.798;2023-08-24T13:01:38;23.30;89.00
35127;DHT22;21300;52.006;5.798;2023-08-24T13:04:04;23.30;89.30
35127;DHT22;21300;52.006;5.798;2023-08-24T13:06:30;23.30;89.00
35127;DHT22;21300;52.006;5.798;2023-08-24T13:08:56;23.40;89.30
35127;DHT22;21300;52.006;5.798;2023-08-24T13:11:22;23.40;88.90
35127;DHT22;21300;52.006;5.798;2023-08-24T13:13:48;23.40;89.50
35127;DHT22;21300;52.006;5.798;2023-08-24T13:16:14;23.30;89.00
35127;DHT22;21300;52.006;5.798;2023-08-24T13:18:41;23.40;88.80
35127;DHT22;21300;52.006;5.798;2023-08-24T13:21:06;23.40;88.40
35127;DHT22;21300;52.006;5.798;2023-08-24T13:23:32;23.50;88.30
35127;DHT22;21300;52.006;5.798;2023-08-24T13:25:59;23.40;88.30
35127;DHT22;21300;52.006;5.798;2023-08-24T13:28:24;23.50;88.10
35127;DHT22;21300;52.006;5.798;2023-08-24T13:30:50;23.50;88.00
35127;DHT22;21300;52.006;5.798;2023-08-24T13:33:16;23.50;87.90
35127;DHT22;21300;52.006;5.798;2023-08-24T13:35:41;23.50;87.60
35127;DHT22;21300;52.006;5.798;2023-08-24T13:38:07;23.50;87.60
35127;DHT22;21300;52.006;5.798;2023-08-24T13:40:32;23.60;88.60
35127;DHT22;21300;52.006;5.798;2023-08-24T13:42:58;23.70;89.50
35127;DHT22;21300;52.006;5.798;2023-08-24T13:45:24;23.80;90.30
35127;DHT22;21300;52.006;5.798;2023-08-24T13:47:50;23.80;90.20
35127;DHT22;21300;52.006;5.798;2023-08-24T13:50:15;23.90;90.50
35127;DHT22;21300;52.006;5.798;2023-08-24T13:52:41;23.90;90.30
35127;DHT22;21300;52.006;5.798;2023-08-24T13:55:07;23.90;90.10
35127;DHT22;21300;52.006;5.798;2023-08-24T13:57:32;23.90;90.00
35127;DHT22;21300;52.006;5.798;2023-08-24T13:59:58;23.90;89.80
35127;DHT22;21300;52.006;5.798;2023-08-24T14:02:25;23.90;90.00
35127;DHT22;21300;52.006;5.798;2023-08-24T14:04:53;23.90;89.70
35127;DHT22;21300;52.006;5.798;2023-08-24T14:07:19;23.90;89.50
35127;DHT22;21300;52.006;5.798;2023-08-24T14:09:46;24.00;89.30
35127;DHT22;21300;52.006;5.798;2023-08-24T14:12:14;23.90;89.00
35127;DHT22;21300;52.006;5.798;2023-08-24T14:14:39;23.90;89.00
35127;DHT22;21300;52.006;5.798;2023-08-24T14:17:05;24.00;88.90
35127;DHT22;21300;52.006;5.798;2023-08-24T14:19:30;24.00;88.60
35127;DHT22;21300;52.006;5.798;2023-08-24T14:21:56;24.00;88.20
35127;DHT22;21300;52.006;5.798;2023-08-24T14:24:23;24.00;88.10
35127;DHT22;21300;52.006;5.798;2023-08-24T14:26:49;24.00;88.20
35127;DHT22;21300;52.006;5.798;2023-08-24T14:29:15;24.10;88.10
35127;DHT22;21300;52.006;5.798;2023-08-24T14:31:40;24.10;88.20
35127;DHT22;21300;52.006;5.798;2023-08-24T14:34:06;24.10;87.90
35127;DHT22;21300;52.006;5.798;2023-08-24T14:36:32;24.10;87.80
35127;DHT22;21300;52.006;5.798;2023-08-24T14:38:58;24.10;87.60
35127;DHT22;21300;52.006;5.798;2023-08-24T14:41:23;24.10;87.70
35127;DHT22;21300;52.006;5.798;2023-08-24T14:43:49;24.10;87.50
35127;DHT22;21300;52.006;5.798;2023-08-24T14:46:14;24.10;87.30
35127;DHT22;21300;52.006;5.798;2023-08-24T14:48:40;24.10;87.30
35127;DHT22;21300;52.006;5.798;2023-08-24T14:51:06;24.10;87.20
35127;DHT22;21300;52.006;5.798;2023-08-24T14:53:31;24.10;87.90
35127;DHT22;21300;52.006;5.798;2023-08-24T14:55:57;24.20;87.10
35127;DHT22;21300;52.006;5.798;2023-08-24T14:58:24;24.10;87.20
35127;DHT22;21300;52.006;5.798;2023-08-24T15:00:51;24.10;86.90
35127;DHT22;21300;52.006;5.798;2023-08-24T15:03:17;24.20;87.10
35127;DHT22;21300;52.006;5.798;2023-08-24T15:05:45;24.20;87.20
35127;DHT22;21300;52.006;5.798;2023-08-24T15:08:12;24.10;86.90
35127;DHT22;21300;52.006;5.798;2023-08-24T15:10:38;24.20;86.90
35127;DHT22;21300;52.006;5.798;2023-08-24T15:13:04;24.20;86.70
35127;DHT22;21300;52.006;5.798;2023-08-24T15:15:31;24.10;86.70
35127;DHT22;21300;52.006;5.798;2023-08-24T15:17:56;24.20;86.90
35127;DHT22;21300;52.006;5.798;2023-08-24T15:20:22;24.10;86.80
35127;DHT22;21300;52.006;5.798;2023-08-24T15:22:48;24.20;86.80
35127;DHT22;21300;52.006;5.798;2023-08-24T15:25:14;24.20;86.80
35127;DHT22;21300;52.006;5.798;2023-08-24T15:27:39;24.20;86.80
35127;DHT22;21300;52.006;5.798;2023-08-24T15:30:05;24.20;86.50
35127;DHT22;21300;52.006;5.798;2023-08-24T15:32:31;24.20;86.50
35127;DHT22;21300;52.006;5.798;2023-08-24T15:35:00;24.10;87.40
35127;DHT22;21300;52.006;5.798;2023-08-24T15:37:26;24.10;88.70
35127;DHT22;21300;52.006;5.798;2023-08-24T15:39:51;24.10;89.80